createdAt,value
2023-04-10T00:00:31.560Z,98029.41
2023-04-10T00:03:00.415Z,98029.66
2023-04-10T00:05:28.541Z,98026.38
2023-04-10T00:07:57.831Z,98021.28
2023-04-10T00:10:26.536Z,98022.31
2023-04-10T00:12:56.440Z,98012.00
2023-04-10T00:15:25.149Z,98004.66
2023-04-10T00:17:55.338Z,98017.56
2023-04-10T00:20:23.624Z,98017.81
2023-04-10T00:22:51.448Z,98021.41
2023-04-10T00:25:23.054Z,98024.94
2023-04-10T00:27:51.201Z,98022.56
2023-04-10T00:30:19.310Z,98027.81
2023-04-10T00:32:47.204Z,98022.50
2023-04-10T00:35:15.602Z,98019.69
2023-04-10T00:37:43.544Z,98016.22
2023-04-10T00:40:12.377Z,98023.16
2023-04-10T00:42:41.714Z,98021.66
2023-04-10T00:45:10.833Z,98022.72
2023-04-10T00:47:39.125Z,98018.41
2023-04-10T00:50:07.945Z,98021.97
2023-04-10T00:52:36.203Z,98024.78
2023-04-10T00:55:04.427Z,98022.22
2023-04-10T00:57:32.386Z,98032.75
2023-04-10T01:00:02.028Z,98039.81
2023-04-10T01:02:29.916Z,98031.19
2023-04-10T01:04:57.964Z,98024.91
2023-04-10T01:07:32.464Z,98029.19
2023-04-10T01:10:06.531Z,98028.31
2023-04-10T01:12:43.988Z,98011.28
2023-04-10T01:15:16.360Z,98018.13
2023-04-10T01:17:47.649Z,98016.41
2023-04-10T01:20:21.973Z,98007.91
2023-04-10T01:23:14.853Z,98004.59
2023-04-10T01:25:45.571Z,97964.88
2023-04-10T01:28:32.485Z,98007.59
2023-04-10T01:31:03.803Z,98000.88
2023-04-10T01:33:48.741Z,97993.19
2023-04-10T01:36:21.470Z,97993.44
2023-04-10T01:38:51.107Z,97993.38
2023-04-10T01:41:20.072Z,97986.63
2023-04-10T01:43:49.757Z,97988.31
2023-04-10T01:46:19.916Z,97982.31
2023-04-10T01:48:48.340Z,97978.06
2023-04-10T01:51:16.824Z,97978.00
2023-04-10T01:53:45.430Z,97977.19
2023-04-10T01:56:14.129Z,97985.94
2023-04-10T01:58:42.744Z,97980.19
2023-04-10T02:01:22.567Z,97973.22
2023-04-10T02:03:58.496Z,97975.94
2023-04-10T02:06:33.151Z,97980.28
2023-04-10T02:09:09.575Z,97976.00
2023-04-10T02:11:43.292Z,97961.31
2023-04-10T02:14:13.433Z,97957.91
2023-04-10T02:16:42.238Z,97961.56
2023-04-10T02:19:12.518Z,97957.22
2023-04-10T02:21:42.156Z,97960.75
2023-04-10T02:24:10.010Z,97957.28
2023-04-10T02:26:47.650Z,97962.41
2023-04-10T02:29:15.607Z,97963.03
2023-04-10T02:31:44.229Z,97961.06
2023-04-10T02:34:13.903Z,97967.84
2023-04-10T02:36:41.905Z,97951.47
2023-04-10T02:39:09.783Z,97965.81
2023-04-10T02:41:37.521Z,97958.78
2023-04-10T02:44:06.879Z,97956.34
2023-04-10T02:46:34.725Z,97953.91
2023-04-10T02:49:02.669Z,97958.34
2023-04-10T02:51:36.242Z,97955.84
2023-04-10T02:54:04.088Z,97954.06
2023-04-10T02:56:32.191Z,97950.56
2023-04-10T02:58:59.981Z,97944.63
2023-04-10T03:01:27.926Z,97939.72
2023-04-10T03:03:56.049Z,97919.19
2023-04-10T03:06:27.240Z,97943.06
2023-04-10T03:08:56.728Z,97933.72
2023-04-10T03:11:24.742Z,97935.59
2023-04-10T03:13:52.665Z,97929.59
2023-04-10T03:16:20.810Z,97919.28
2023-04-10T03:18:48.701Z,97921.19
2023-04-10T03:21:16.613Z,97916.06
2023-04-10T03:23:44.490Z,97906.47
2023-04-10T03:26:13.646Z,97902.16
2023-04-10T03:28:41.479Z,97903.19
2023-04-10T03:31:09.857Z,97899.69
2023-04-10T03:33:37.814Z,97903.31
2023-04-10T03:36:06.453Z,97881.25
2023-04-10T03:38:34.434Z,97898.31
2023-04-10T03:41:02.221Z,97901.91
2023-04-10T03:43:32.115Z,97880.78
2023-04-10T03:45:59.982Z,97895.03
2023-04-10T03:48:28.481Z,97902.84
2023-04-10T03:50:56.535Z,97899.41
2023-04-10T03:53:24.768Z,97902.09
2023-04-10T03:55:53.152Z,97897.72
2023-04-10T03:58:20.982Z,97908.16
2023-04-10T04:00:50.491Z,97903.78
2023-04-10T04:03:18.457Z,97908.97
2023-04-10T04:05:46.552Z,97914.25
2023-04-10T04:08:14.348Z,97904.69
2023-04-10T04:10:42.192Z,97911.72
2023-04-10T04:13:10.072Z,97909.13
2023-04-10T04:15:37.906Z,97910.81
2023-04-10T04:18:07.415Z,97921.28
2023-04-10T04:20:35.258Z,97916.13
2023-04-10T04:23:03.061Z,97916.28
2023-04-10T04:25:30.932Z,97917.94
2023-04-10T04:27:58.752Z,97916.25
2023-04-10T04:30:26.628Z,97915.44
2023-04-10T04:32:54.481Z,97917.19
2023-04-10T04:35:24.193Z,97921.66
2023-04-10T04:37:52.026Z,97918.22
2023-04-10T04:40:19.932Z,97905.22
2023-04-10T04:42:47.785Z,97895.03
2023-04-10T04:45:15.561Z,97907.88
2023-04-10T04:47:43.427Z,97906.28
2023-04-10T04:50:11.546Z,97909.59
2023-04-10T04:52:40.760Z,97911.31
2023-04-10T04:55:09.625Z,97913.13
2023-04-10T04:57:37.507Z,97913.13
2023-04-10T05:00:06.345Z,97910.50
2023-04-10T05:02:34.273Z,97911.31
2023-04-10T05:05:02.441Z,97907.84
2023-04-10T05:07:30.319Z,97914.72
2023-04-10T05:09:59.682Z,97908.59
2023-04-10T05:12:27.521Z,97911.06
2023-04-10T05:14:55.400Z,97906.84
2023-04-10T05:17:23.284Z,97912.88
2023-04-10T05:19:51.326Z,97909.34
2023-04-10T05:22:19.159Z,97926.63
2023-04-10T05:24:47.131Z,97911.69
2023-04-10T05:27:16.393Z,97903.00
2023-04-10T05:29:44.182Z,97915.75
2023-04-10T05:32:12.084Z,97903.34
2023-04-10T05:34:39.993Z,97917.16
2023-04-10T05:37:08.943Z,97910.78
2023-04-10T05:39:36.795Z,97916.56
2023-04-10T05:42:04.846Z,97910.44
2023-04-10T05:44:34.020Z,97907.56
2023-04-10T05:47:01.864Z,97909.19
2023-04-10T05:49:29.654Z,97911.75
2023-04-10T05:51:57.468Z,97914.06
2023-04-10T05:54:25.456Z,97914.00
2023-04-10T05:56:53.280Z,97906.00
2023-04-10T05:59:21.298Z,97909.88
2023-04-10T06:01:50.933Z,97914.72
2023-04-10T06:04:19.099Z,97918.72
2023-04-10T06:06:47.213Z,97904.69
2023-04-10T06:09:15.057Z,97905.19
2023-04-10T06:11:42.883Z,97899.56
2023-04-10T06:14:10.664Z,97901.00
2023-04-10T06:16:38.642Z,97894.59
2023-04-10T06:19:07.989Z,97897.00
2023-04-10T06:21:36.041Z,97905.88
2023-04-10T06:24:03.891Z,97901.38
2023-04-10T06:26:31.757Z,97910.84
2023-04-10T06:28:59.630Z,97907.03
2023-04-10T06:31:27.489Z,97908.41
2023-04-10T06:33:55.724Z,97905.50
2023-04-10T06:36:24.939Z,97828.31
2023-04-10T06:38:52.961Z,97906.72
2023-04-10T06:41:20.872Z,97915.84
2023-04-10T06:43:49.142Z,97876.19
2023-04-10T06:46:17.339Z,97902.94
2023-04-10T06:48:53.332Z,97893.59
2023-04-10T06:51:21.226Z,97899.59
2023-04-10T06:53:50.421Z,97888.50
2023-04-10T06:56:18.233Z,97892.69
2023-04-10T06:58:46.282Z,97899.31
2023-04-10T07:01:14.236Z,97904.66
2023-04-10T07:03:42.098Z,97897.88
2023-04-10T07:06:11.794Z,97903.34
2023-04-10T07:08:39.672Z,97892.09
2023-04-10T07:11:08.979Z,97888.84
2023-04-10T07:13:38.914Z,97898.13
2023-04-10T07:16:08.329Z,97893.81
2023-04-10T07:18:38.526Z,97899.63
2023-04-10T07:21:12.418Z,97893.78
2023-04-10T07:23:40.886Z,97892.75
2023-04-10T07:26:10.113Z,97898.31
2023-04-10T07:28:38.311Z,97896.66
2023-04-10T07:31:07.955Z,97904.06
2023-04-10T07:33:36.414Z,97896.34
2023-04-10T07:36:05.963Z,97899.16
2023-04-10T07:38:33.953Z,97900.28
2023-04-10T07:41:01.745Z,97903.53
2023-04-10T07:43:31.015Z,97897.06
2023-04-10T07:45:59.050Z,97910.53
2023-04-10T07:48:27.026Z,97900.13
2023-04-10T07:50:54.846Z,97898.63
2023-04-10T07:53:22.742Z,97900.81
2023-04-10T07:55:50.931Z,97900.13
2023-04-10T07:58:18.744Z,97901.78
2023-04-10T08:00:48.171Z,97890.88
2023-04-10T08:03:16.792Z,97899.63
2023-04-10T08:05:44.787Z,97904.06
2023-04-10T08:08:12.685Z,97897.44
2023-04-10T08:10:40.494Z,97894.59
2023-04-10T08:13:08.349Z,97906.53
2023-04-10T08:15:36.317Z,97889.63
2023-04-10T08:18:05.572Z,97896.06
2023-04-10T08:20:37.004Z,97900.22
2023-04-10T08:23:17.159Z,97889.25
2023-04-10T08:25:47.946Z,97881.00
2023-04-10T08:28:15.720Z,97888.81
2023-04-10T08:30:43.522Z,97886.06
2023-04-10T08:33:12.733Z,97879.91
2023-04-10T08:35:40.582Z,97880.81
2023-04-10T08:38:14.065Z,97876.78
2023-04-10T08:40:44.474Z,97864.72
2023-04-10T08:43:12.596Z,97868.84
2023-04-10T08:45:41.920Z,97868.09
2023-04-10T08:48:13.174Z,97857.66
2023-04-10T08:50:43.343Z,97848.81
2023-04-10T08:53:13.215Z,97855.47
2023-04-10T08:55:41.767Z,97833.25
2023-04-10T08:58:11.377Z,97848.59
2023-04-10T09:00:39.974Z,97843.72
2023-04-10T09:03:11.899Z,97841.41
2023-04-10T09:05:41.259Z,97835.59
2023-04-10T09:08:09.494Z,97840.69
2023-04-10T09:10:37.436Z,97838.28
2023-04-10T09:13:05.300Z,97835.09
2023-04-10T09:15:59.595Z,97836.75
2023-04-10T09:18:42.622Z,97828.66
2023-04-10T09:21:13.289Z,97840.84
2023-04-10T09:23:42.748Z,97831.16
2023-04-10T09:26:29.304Z,97815.31
2023-04-10T09:29:02.506Z,97802.53
2023-04-10T09:31:35.397Z,97817.63
2023-04-10T09:34:14.075Z,97814.94
2023-04-10T09:36:43.695Z,97812.91
2023-04-10T09:39:12.955Z,97793.25
2023-04-10T09:41:51.712Z,97804.56
2023-04-10T09:44:21.452Z,97808.78
2023-04-10T09:46:49.727Z,97801.97
2023-04-10T09:49:17.608Z,97802.50
2023-04-10T09:51:47.451Z,97763.22
2023-04-10T09:54:15.372Z,97799.59
2023-04-10T09:56:46.590Z,97793.47
2023-04-10T09:59:15.732Z,97791.97
2023-04-10T10:01:43.772Z,97779.09
2023-04-10T10:04:12.712Z,97779.72
2023-04-10T10:06:40.650Z,97775.03
2023-04-10T10:09:10.348Z,97770.19
2023-04-10T10:11:38.316Z,97762.19
2023-04-10T10:14:11.140Z,97760.03
2023-04-10T10:16:42.752Z,97765.84
2023-04-10T10:19:14.699Z,97759.78
2023-04-10T10:21:44.434Z,97755.88
2023-04-10T10:24:14.409Z,97742.75
2023-04-10T10:26:42.199Z,97744.28
2023-04-10T10:29:11.166Z,97749.88
2023-04-10T10:31:39.573Z,97739.66
2023-04-10T10:34:09.190Z,97725.69
2023-04-10T10:36:37.418Z,97722.41
2023-04-10T10:39:30.757Z,97729.91
2023-04-10T10:42:03.620Z,97730.38
2023-04-10T10:44:38.472Z,97729.09
2023-04-10T10:47:10.697Z,97713.66
2023-04-10T10:49:58.285Z,97717.28
2023-04-10T10:52:40.159Z,97712.66
2023-04-10T10:55:36.756Z,97707.22
2023-04-10T10:58:06.296Z,97699.56
2023-04-10T11:01:10.244Z,97701.94
2023-04-10T11:03:38.547Z,97690.22
2023-04-10T11:06:08.856Z,97687.78
2023-04-10T11:08:45.797Z,97677.84
2023-04-10T11:11:18.645Z,97680.81
2023-04-10T11:14:17.876Z,97677.38
2023-04-10T11:16:47.963Z,97649.94
2023-04-10T11:19:19.107Z,97683.78
2023-04-10T11:22:08.921Z,97679.59
2023-04-10T11:24:59.658Z,97673.47
2023-04-10T11:27:49.739Z,97671.66
2023-04-10T11:30:27.431Z,97666.03
2023-04-10T11:32:55.677Z,97652.44
2023-04-10T11:35:23.666Z,97656.13
2023-04-10T11:37:51.734Z,97646.56
2023-04-10T11:40:19.758Z,97620.00
2023-04-10T11:42:48.941Z,97652.09
2023-04-10T11:45:29.816Z,97641.09
2023-04-10T11:47:57.753Z,97642.22
2023-04-10T11:50:32.349Z,97648.53
2023-04-10T11:53:00.141Z,97631.16
2023-04-10T11:55:38.343Z,97639.75
2023-04-10T11:58:22.704Z,97625.28
2023-04-10T12:00:57.676Z,97637.69
2023-04-10T12:03:36.289Z,97628.75
2023-04-10T12:06:05.008Z,97629.69
2023-04-10T12:08:33.516Z,97613.84
2023-04-10T12:11:01.790Z,97614.97
2023-04-10T12:13:31.682Z,97623.22
2023-04-10T12:16:00.958Z,97614.69
2023-04-10T12:18:30.118Z,97609.38
2023-04-10T12:20:59.172Z,97602.72
2023-04-10T12:23:28.361Z,97603.34
2023-04-10T12:26:13.449Z,97594.25
2023-04-10T12:28:43.550Z,97589.41
2023-04-10T12:31:11.720Z,97587.28
2023-04-10T12:33:40.724Z,97593.13
2023-04-10T12:36:21.383Z,97608.88
2023-04-10T12:38:49.207Z,97598.75
2023-04-10T12:41:22.751Z,97592.97
2023-04-10T12:43:52.607Z,97577.84
2023-04-10T12:46:27.930Z,97580.00
2023-04-10T12:48:56.418Z,97581.25
2023-04-10T12:51:48.723Z,97571.41
2023-04-10T12:54:30.002Z,97561.91
2023-04-10T12:56:57.835Z,97565.25
2023-04-10T12:59:28.006Z,97562.94
2023-04-10T13:01:56.385Z,97561.75
2023-04-10T13:04:24.727Z,97563.31
2023-04-10T13:06:53.231Z,97547.53
2023-04-10T13:09:21.183Z,97548.41
2023-04-10T13:11:51.472Z,97555.41
2023-04-10T13:14:19.793Z,97564.47
2023-04-10T13:16:49.215Z,97543.78
2023-04-10T13:19:17.068Z,97532.84
2023-04-10T13:21:44.984Z,97527.59
2023-04-10T13:24:14.705Z,97524.09
2023-04-10T13:26:43.872Z,97528.09
2023-04-10T13:29:11.997Z,97521.81
2023-04-10T13:31:39.826Z,97499.91
2023-04-10T13:34:09.071Z,97516.19
2023-04-10T13:36:37.136Z,97501.97
2023-04-10T13:39:05.147Z,97491.84
2023-04-10T13:41:32.982Z,97481.34
2023-04-10T13:44:00.832Z,97491.38
2023-04-10T13:46:28.657Z,97487.66
2023-04-10T13:48:56.580Z,97477.19
2023-04-10T13:51:26.621Z,97488.84
2023-04-10T13:53:54.469Z,97478.88
2023-04-10T13:56:22.310Z,97480.75
2023-04-10T13:58:50.080Z,97471.88
2023-04-10T14:01:18.003Z,97466.97
2023-04-10T14:03:46.034Z,97449.53
2023-04-10T14:06:14.290Z,97450.84
2023-04-10T14:08:43.458Z,97462.69
2023-04-10T14:11:11.306Z,97452.91
2023-04-10T14:13:39.101Z,97441.41
2023-04-10T14:16:07.868Z,97433.22
2023-04-10T14:18:35.747Z,97438.72
2023-04-10T14:21:03.616Z,97437.78
2023-04-10T14:23:31.559Z,97432.84
2023-04-10T14:26:00.814Z,97428.88
2023-04-10T14:28:29.293Z,97427.53
2023-04-10T14:30:57.092Z,97404.41
2023-04-10T14:33:24.901Z,97401.19
2023-04-10T14:35:54.106Z,97401.72
2023-04-10T14:38:21.971Z,97390.97
2023-04-10T14:40:50.760Z,97378.25
2023-04-10T14:43:19.960Z,97382.00
2023-04-10T14:45:47.947Z,97392.88
2023-04-10T14:48:16.053Z,97367.63
2023-04-10T14:50:43.963Z,97374.88
2023-04-10T14:53:11.784Z,97361.22
2023-04-10T14:55:39.588Z,97379.03
2023-04-10T14:58:09.014Z,97364.56
2023-04-10T15:00:45.877Z,97332.34
2023-04-10T15:03:13.743Z,97363.16
2023-04-10T15:05:41.765Z,97358.88
2023-04-10T15:08:09.525Z,97359.53
2023-04-10T15:10:37.391Z,97347.53
2023-04-10T15:13:06.011Z,97352.53
2023-04-10T15:15:33.899Z,97336.59
2023-04-10T15:18:03.095Z,97326.84
2023-04-10T15:20:30.975Z,97320.69
2023-04-10T15:22:58.817Z,97329.38
2023-04-10T15:25:27.423Z,97327.97
2023-04-10T15:27:56.456Z,97308.19
2023-04-10T15:30:24.490Z,97299.88
2023-04-10T15:32:52.350Z,97283.06
2023-04-10T15:35:21.924Z,97281.28
2023-04-10T15:37:49.747Z,97285.44
2023-04-10T15:40:17.710Z,97305.56
2023-04-10T15:42:45.736Z,97265.31
2023-04-10T15:45:13.530Z,97270.09
2023-04-10T15:47:41.403Z,97258.63
2023-04-10T15:50:10.774Z,97257.50
2023-04-10T15:52:40.201Z,97264.97
2023-04-10T15:55:08.857Z,97265.56
2023-04-10T15:57:36.670Z,97252.97
2023-04-10T16:00:04.943Z,97265.81
2023-04-10T16:02:33.180Z,97268.06
2023-04-10T16:05:01.177Z,97276.31
2023-04-10T16:07:29.122Z,97262.34
2023-04-10T16:09:58.378Z,97266.25
2023-04-10T16:12:26.301Z,97257.97
2023-04-10T16:14:54.112Z,97257.69
2023-04-10T16:17:21.943Z,97263.34
2023-04-10T16:19:49.782Z,97257.50
2023-04-10T16:22:17.587Z,97267.13
2023-04-10T16:24:45.411Z,97263.94
2023-04-10T16:27:14.615Z,97258.66
2023-04-10T16:29:42.420Z,97259.56
2023-04-10T16:32:10.224Z,97253.88
2023-04-10T16:34:38.098Z,97250.47
2023-04-10T16:37:05.999Z,97257.97
2023-04-10T16:39:33.795Z,97241.94
2023-04-10T16:42:03.497Z,97245.13
2023-04-10T16:44:32.911Z,97238.00
2023-04-10T16:47:00.944Z,97235.94
2023-04-10T16:49:28.791Z,97228.25
2023-04-10T16:51:56.599Z,97222.94
2023-04-10T16:54:24.412Z,97222.78
2023-04-10T16:56:52.216Z,97211.94
2023-04-10T16:59:20.060Z,97201.47
2023-04-10T17:01:49.230Z,97204.09
2023-04-10T17:04:19.098Z,97211.88
2023-04-10T17:06:47.007Z,97195.72
2023-04-10T17:09:14.816Z,97194.56
2023-04-10T17:11:42.645Z,97188.31
2023-04-10T17:14:10.611Z,97173.50
2023-04-10T17:16:38.460Z,97178.75
2023-04-10T17:19:07.625Z,97179.47
2023-04-10T17:21:35.766Z,97181.88
2023-04-10T17:24:03.690Z,97180.25
2023-04-10T17:26:31.872Z,97170.16
2023-04-10T17:28:59.662Z,97171.94
2023-04-10T17:31:27.543Z,97166.09
2023-04-10T17:33:55.432Z,97166.66
2023-04-10T17:36:24.788Z,97156.06
2023-04-10T17:38:54.176Z,97161.03
2023-04-10T17:41:22.184Z,97161.44
2023-04-10T17:43:49.970Z,97161.03
2023-04-10T17:46:17.807Z,97151.69
2023-04-10T17:48:46.106Z,97147.38
2023-04-10T17:51:14.085Z,97141.22
2023-04-10T17:53:43.343Z,97140.78
2023-04-10T17:56:18.459Z,97156.38
2023-04-10T17:58:47.488Z,97144.94
2023-04-10T18:01:22.527Z,97169.84
2023-04-10T18:03:50.590Z,97166.22
2023-04-10T18:06:18.741Z,97174.00
2023-04-10T18:08:48.141Z,97167.75
2023-04-10T18:11:15.991Z,97145.59
2023-04-10T18:13:43.766Z,97135.75
2023-04-10T18:16:12.021Z,97134.34
2023-04-10T18:18:41.862Z,97124.53
2023-04-10T18:21:10.472Z,97136.81
2023-04-10T18:23:39.471Z,97135.97
2023-04-10T18:26:08.930Z,97130.44
2023-04-10T18:28:37.898Z,97117.97
2023-04-10T18:31:06.459Z,97123.13
2023-04-10T18:33:34.442Z,97131.31
2023-04-10T18:36:03.540Z,97117.00
2023-04-10T18:38:31.445Z,97123.13
2023-04-10T18:40:59.487Z,97119.44
2023-04-10T18:43:28.701Z,97138.41
2023-04-10T18:45:56.510Z,97153.47
2023-04-10T18:48:24.448Z,97152.06
2023-04-10T18:50:53.170Z,97149.69
2023-04-10T18:53:21.163Z,97145.06
2023-04-10T18:55:53.079Z,97139.66
2023-04-10T18:58:21.557Z,97134.75
2023-04-10T19:00:50.957Z,97141.13
2023-04-10T19:03:19.917Z,97148.22
2023-04-10T19:05:47.942Z,97148.13
2023-04-10T19:08:17.085Z,97143.22
2023-04-10T19:10:44.893Z,97148.88
2023-04-10T19:13:13.249Z,97165.38
2023-04-10T19:15:42.480Z,97152.31
2023-04-10T19:18:13.120Z,97150.22
2023-04-10T19:20:50.788Z,97151.31
2023-04-10T19:23:20.557Z,97142.31
2023-04-10T19:25:48.555Z,97122.03
2023-04-10T19:28:16.320Z,97124.72
2023-04-10T19:30:44.069Z,97113.56
2023-04-10T19:33:13.257Z,97106.13
2023-04-10T19:35:41.120Z,97095.22
2023-04-10T19:38:09.034Z,97091.38
2023-04-10T19:40:37.224Z,97075.91
2023-04-10T19:43:05.176Z,97066.06
2023-04-10T19:45:33.292Z,97084.09
2023-04-10T19:48:01.239Z,97090.44
2023-04-10T19:50:31.350Z,97079.88
2023-04-10T19:52:59.515Z,97069.28
2023-04-10T19:55:27.717Z,97059.31
2023-04-10T19:57:55.793Z,97047.66
2023-04-10T20:00:23.622Z,97050.78
2023-04-10T20:02:51.642Z,97041.66
2023-04-10T20:05:19.757Z,97035.66
2023-04-10T20:07:49.056Z,97048.25
2023-04-10T20:10:16.830Z,97047.53
2023-04-10T20:12:44.639Z,97043.34
2023-04-10T20:15:13.505Z,97041.66
2023-04-10T20:17:41.322Z,97039.97
2023-04-10T20:20:10.089Z,97045.47
2023-04-10T20:22:37.916Z,97043.19
2023-04-10T20:25:08.409Z,97053.34
2023-04-10T20:27:36.175Z,97033.59
2023-04-10T20:30:04.311Z,97019.66
2023-04-10T20:32:32.099Z,97005.53
2023-04-10T20:34:59.901Z,97012.13
2023-04-10T20:37:27.796Z,97017.78
2023-04-10T20:39:55.600Z,97018.25
2023-04-10T20:42:24.775Z,97027.50
2023-04-10T20:44:52.743Z,97029.78
2023-04-10T20:47:20.668Z,97032.06
2023-04-10T20:49:48.420Z,97023.19
2023-04-10T20:52:16.188Z,97019.59
2023-04-10T20:54:43.975Z,97009.91
2023-04-10T20:57:11.760Z,97008.44
2023-04-10T20:59:40.930Z,97007.38
2023-04-10T21:02:08.889Z,96996.81
2023-04-10T21:04:36.741Z,96989.63
2023-04-10T21:07:04.507Z,96979.94
2023-04-10T21:09:32.276Z,96973.81
2023-04-10T21:12:00.028Z,96958.09
2023-04-10T21:14:27.819Z,96964.94
2023-04-10T21:16:56.997Z,96951.88
2023-04-10T21:19:24.851Z,96941.81
2023-04-10T21:21:52.609Z,96947.66
2023-04-10T21:24:20.393Z,96960.97
2023-04-10T21:26:48.237Z,96954.25
2023-04-10T21:29:16.096Z,96951.75
2023-04-10T21:31:44.229Z,96954.38
2023-04-10T21:34:13.537Z,96953.69
2023-04-10T21:36:41.310Z,96948.41
2023-04-10T21:39:09.507Z,96936.41
2023-04-10T21:41:37.487Z,96934.72
2023-04-10T21:44:05.519Z,96929.81
2023-04-10T21:46:33.836Z,96934.03
2023-04-10T21:49:01.645Z,96928.84
2023-04-10T21:51:31.100Z,96948.16
2023-04-10T21:53:58.919Z,96951.28
2023-04-10T21:56:26.786Z,96949.69
2023-04-10T21:58:54.730Z,96946.69
2023-04-10T22:01:22.940Z,96930.16
2023-04-10T22:03:50.970Z,96945.00
2023-04-10T22:06:18.826Z,96954.34
2023-04-10T22:08:48.012Z,96943.28
2023-04-10T22:11:15.778Z,96955.13
2023-04-10T22:13:43.550Z,96957.41
2023-04-10T22:16:11.349Z,96936.69
2023-04-10T22:18:39.230Z,96921.94
2023-04-10T22:21:07.418Z,96924.09
2023-04-10T22:23:35.245Z,96923.34
2023-04-10T22:26:04.368Z,96915.25
2023-04-10T22:28:32.160Z,96912.03
2023-04-10T22:30:59.990Z,96917.63
2023-04-10T22:33:27.844Z,96917.97
2023-04-10T22:35:55.741Z,96865.66
2023-04-10T22:38:23.571Z,96915.81
2023-04-10T22:40:51.369Z,96911.47
2023-04-10T22:43:20.519Z,96902.63
2023-04-10T22:45:48.368Z,96900.94
2023-04-10T22:48:16.204Z,96901.16
2023-04-10T22:50:43.983Z,96908.31
2023-04-10T22:53:12.186Z,96906.66
2023-04-10T22:55:40.047Z,96867.31
2023-04-10T22:58:07.945Z,96899.69
2023-04-10T23:00:37.262Z,96899.69
2023-04-10T23:03:05.286Z,96916.56
2023-04-10T23:05:34.072Z,96919.31
2023-04-10T23:08:13.161Z,96928.81
2023-04-10T23:10:40.962Z,96928.41
2023-04-10T23:13:08.774Z,96926.13
2023-04-10T23:15:38.074Z,96939.50
2023-04-10T23:18:06.120Z,96940.47
2023-04-10T23:20:34.634Z,96946.53
2023-04-10T23:23:02.672Z,96936.13
2023-04-10T23:25:30.619Z,96931.63
2023-04-10T23:27:59.894Z,96914.00
2023-04-10T23:30:28.976Z,96904.34
2023-04-10T23:32:58.349Z,96904.03
2023-04-10T23:35:27.973Z,96885.75
2023-04-10T23:37:55.808Z,96886.38
2023-04-10T23:40:23.776Z,96898.78
2023-04-10T23:42:51.828Z,96907.19
2023-04-10T23:45:19.650Z,96906.13
2023-04-10T23:47:49.521Z,96906.53
2023-04-10T23:50:20.334Z,96906.03
2023-04-10T23:52:50.263Z,96910.63
2023-04-10T23:55:18.626Z,96908.31
2023-04-10T23:57:46.390Z,96899.00
